createdAt,value
2022-12-15T00:02:35.468Z,49.25
2022-12-15T00:05:22.179Z,54.58
2022-12-15T00:08:08.001Z,49.78
2022-12-15T00:10:53.842Z,47.40
2022-12-15T00:13:39.684Z,54.10
2022-12-15T00:16:25.942Z,50.75
2022-12-15T00:19:11.860Z,48.75
2022-12-15T00:21:57.737Z,51.28
2022-12-15T00:24:43.542Z,45.35
2022-12-15T00:27:29.481Z,40.50
2022-12-15T00:30:15.314Z,52.47
2022-12-15T00:33:01.409Z,49.72
2022-12-15T00:35:47.279Z,46.88
2022-12-15T00:38:34.251Z,46.15
2022-12-15T00:41:02.215Z,48.95
2022-12-15T00:43:32.007Z,47.58
2022-12-15T00:46:18.791Z,41.50
2022-12-15T00:48:46.635Z,50.05
2022-12-15T00:51:15.040Z,46.78
2022-12-15T00:54:01.051Z,56.65
2022-12-15T00:56:47.394Z,46.67
2022-12-15T00:59:33.563Z,53.00
2022-12-15T01:02:19.321Z,42.05
2022-12-15T01:05:04.883Z,45.80
2022-12-15T01:07:50.739Z,45.90
2022-12-15T01:10:37.993Z,43.92
2022-12-15T01:13:24.320Z,54.08
2022-12-15T01:16:10.380Z,49.15
2022-12-15T01:18:56.157Z,43.15
2022-12-15T01:21:25.205Z,40.90
2022-12-15T01:23:53.279Z,47.33
2022-12-15T01:26:20.702Z,56.63
2022-12-15T01:28:49.971Z,48.50
2022-12-15T01:31:17.084Z,46.00
2022-12-15T01:33:44.206Z,53.58
2022-12-15T01:36:11.974Z,44.92
2022-12-15T01:38:39.333Z,45.67
2022-12-15T01:41:10.296Z,49.65
2022-12-15T01:43:40.028Z,54.17
2022-12-15T01:46:18.055Z,40.15
2022-12-15T01:48:53.992Z,46.05
2022-12-15T01:51:35.583Z,62.15
2022-12-15T01:54:14.992Z,47.47
2022-12-15T01:56:46.833Z,42.53
2022-12-15T01:59:30.712Z,46.67
2022-12-15T02:01:58.486Z,43.47
2022-12-15T02:04:26.017Z,43.22
2022-12-15T02:06:53.340Z,53.88
2022-12-15T02:09:23.029Z,50.78
2022-12-15T02:12:09.250Z,41.47
2022-12-15T02:15:00.044Z,42.25
2022-12-15T02:17:58.792Z,34.97
2022-12-15T02:20:46.624Z,41.08
2022-12-15T02:23:28.951Z,50.10
2022-12-15T02:26:20.950Z,54.13
2022-12-15T02:29:04.285Z,42.00
2022-12-15T02:31:50.599Z,48.40
2022-12-15T02:34:40.619Z,43.97
2022-12-15T02:37:15.455Z,46.33
2022-12-15T02:39:43.322Z,45.65
2022-12-15T02:42:12.221Z,47.80
2022-12-15T02:44:47.923Z,46.10
2022-12-15T02:47:39.234Z,44.15
2022-12-15T02:50:24.770Z,45.95
2022-12-15T02:53:16.297Z,52.15
2022-12-15T02:55:50.362Z,54.90
2022-12-15T02:58:48.398Z,46.10
2022-12-15T03:01:30.703Z,47.92
2022-12-15T03:04:00.003Z,43.70
2022-12-15T03:06:27.614Z,45.80
2022-12-15T03:08:54.866Z,52.72
2022-12-15T03:11:22.417Z,39.50
2022-12-15T03:13:49.805Z,46.15
2022-12-15T03:16:17.348Z,52.28
2022-12-15T03:18:44.498Z,44.30
2022-12-15T03:21:11.648Z,43.72
2022-12-15T03:23:39.253Z,49.25
2022-12-15T03:26:06.848Z,44.40
2022-12-15T03:28:34.173Z,43.58
2022-12-15T03:31:01.601Z,42.60
2022-12-15T03:33:29.299Z,50.25
2022-12-15T03:35:56.985Z,38.08
2022-12-15T03:38:24.143Z,50.53
2022-12-15T03:40:51.381Z,48.83
2022-12-15T03:43:18.594Z,42.70
2022-12-15T03:45:45.822Z,44.70
2022-12-15T03:48:13.305Z,34.42
2022-12-15T03:50:40.992Z,44.72
2022-12-15T03:53:08.517Z,44.72
2022-12-15T03:55:35.578Z,45.00
2022-12-15T03:58:03.089Z,36.88
2022-12-15T04:00:30.504Z,40.05
2022-12-15T04:02:57.823Z,42.15
2022-12-15T04:05:33.460Z,42.50
2022-12-15T04:08:01.472Z,41.38
2022-12-15T04:10:34.480Z,43.35
2022-12-15T04:13:07.104Z,43.95
2022-12-15T04:15:37.065Z,39.30
2022-12-15T04:18:07.583Z,42.53
2022-12-15T04:20:34.806Z,40.00
2022-12-15T04:23:02.174Z,45.50
2022-12-15T04:25:47.763Z,37.78
2022-12-15T04:28:33.531Z,38.40
2022-12-15T04:31:34.112Z,38.60
2022-12-15T04:34:23.928Z,55.13
2022-12-15T04:37:12.749Z,31.40
2022-12-15T04:40:01.720Z,43.15
2022-12-15T04:42:50.248Z,36.35
2022-12-15T04:45:40.627Z,41.67
2022-12-15T04:48:26.871Z,40.97
2022-12-15T04:51:12.745Z,47.97
2022-12-15T04:53:58.515Z,33.60
2022-12-15T04:56:44.351Z,41.70
2022-12-15T04:59:30.290Z,41.22
2022-12-15T05:02:16.348Z,40.67
2022-12-15T05:05:02.199Z,46.67
2022-12-15T05:07:47.821Z,44.58
2022-12-15T05:10:33.860Z,49.33
2022-12-15T05:13:26.921Z,39.85
2022-12-15T05:16:12.879Z,36.78
2022-12-15T05:18:58.655Z,39.58
2022-12-15T05:21:44.507Z,42.08
2022-12-15T05:24:30.345Z,48.45
2022-12-15T05:27:16.060Z,41.03
2022-12-15T05:30:02.000Z,38.47
2022-12-15T05:32:33.145Z,41.63
2022-12-15T05:35:01.420Z,33.47
2022-12-15T05:37:30.060Z,37.65
2022-12-15T05:39:57.187Z,31.63
2022-12-15T05:42:24.383Z,41.80
2022-12-15T05:44:51.833Z,34.90
2022-12-15T05:47:18.896Z,34.47
2022-12-15T05:49:46.041Z,39.30
2022-12-15T05:52:13.260Z,37.97
2022-12-15T05:54:40.272Z,35.05
2022-12-15T05:57:07.379Z,36.20
2022-12-15T05:59:34.428Z,42.20
2022-12-15T06:02:01.695Z,36.15
2022-12-15T06:04:29.202Z,33.60
2022-12-15T06:06:56.404Z,32.30
2022-12-15T06:09:23.573Z,43.30
2022-12-15T06:11:50.873Z,32.00
2022-12-15T06:14:18.020Z,42.10
2022-12-15T06:16:50.821Z,48.20
2022-12-15T06:19:19.351Z,40.80
2022-12-15T06:21:46.478Z,37.45
2022-12-15T06:24:13.736Z,35.22
2022-12-15T06:26:41.145Z,47.28
2022-12-15T06:29:10.980Z,34.08
2022-12-15T06:31:40.660Z,39.53
2022-12-15T06:34:11.114Z,35.78
2022-12-15T06:36:39.358Z,39.72
2022-12-15T06:39:10.814Z,37.47
2022-12-15T06:41:38.758Z,29.13
2022-12-15T06:44:06.109Z,41.80
2022-12-15T06:46:35.272Z,38.97
2022-12-15T06:49:02.881Z,29.95
2022-12-15T06:51:30.589Z,46.55
2022-12-15T06:53:58.071Z,35.28
2022-12-15T06:56:32.933Z,32.85
2022-12-15T06:59:02.072Z,32.38
2022-12-15T07:01:30.095Z,40.97
2022-12-15T07:04:00.408Z,87.50
2022-12-15T07:06:29.902Z,136.38
2022-12-15T07:08:57.101Z,60.85
2022-12-15T07:11:24.848Z,31.98
2022-12-15T07:13:53.076Z,43.03
2022-12-15T07:16:22.337Z,61.13
2022-12-15T07:18:49.991Z,48.30
2022-12-15T07:21:17.933Z,131.65
2022-12-15T07:23:54.636Z,116.28
2022-12-15T07:26:23.813Z,157.20
2022-12-15T07:28:51.237Z,217.70
2022-12-15T07:31:18.564Z,69.60
2022-12-15T07:33:47.669Z,46.60
2022-12-15T07:36:14.954Z,42.05
2022-12-15T07:38:42.000Z,38.28
2022-12-15T07:41:10.341Z,36.13
2022-12-15T07:43:38.182Z,34.72
2022-12-15T07:46:06.295Z,29.85
2022-12-15T07:48:34.383Z,73.97
2022-12-15T07:51:11.110Z,52.88
2022-12-15T07:53:40.347Z,37.45
2022-12-15T07:56:09.624Z,32.80
2022-12-15T07:58:38.394Z,44.10
2022-12-15T08:01:13.332Z,43.85
2022-12-15T08:03:41.338Z,29.50
2022-12-15T08:06:11.643Z,38.13
2022-12-15T08:08:39.591Z,46.42
2022-12-15T08:11:12.277Z,42.05
2022-12-15T08:16:28.736Z,40.92
2022-12-15T08:18:57.464Z,45.38
2022-12-15T08:21:24.651Z,75.13
2022-12-15T08:23:52.021Z,150.40
2022-12-15T08:26:23.839Z,329.38
2022-12-15T08:31:23.316Z,354.75
2022-12-15T08:33:50.776Z,120.53
2022-12-15T08:36:19.761Z,122.35
2022-12-15T08:38:47.922Z,140.15
2022-12-15T08:41:23.226Z,127.38
2022-12-15T08:43:51.063Z,140.32
2022-12-15T08:46:21.113Z,132.05
2022-12-15T08:48:49.103Z,98.68
2022-12-15T08:51:17.392Z,127.40
2022-12-15T08:53:45.009Z,116.22
2022-12-15T08:56:16.165Z,97.47
2022-12-15T08:58:44.426Z,72.40
2022-12-15T09:01:20.541Z,65.90
2022-12-15T09:03:51.285Z,58.78
2022-12-15T09:06:21.198Z,63.60
2022-12-15T09:08:50.523Z,42.17
2022-12-15T09:11:18.402Z,53.08
2022-12-15T09:13:45.753Z,44.42
2022-12-15T09:16:15.893Z,41.53
2022-12-15T09:18:57.313Z,42.75
2022-12-15T09:21:26.896Z,39.83
2022-12-15T09:23:58.027Z,42.83
2022-12-15T09:26:25.301Z,35.80
2022-12-15T09:28:53.371Z,37.90
2022-12-15T09:31:26.728Z,35.05
2022-12-15T09:33:56.519Z,37.38
2022-12-15T09:36:25.003Z,38.92
2022-12-15T09:38:52.432Z,37.08
2022-12-15T09:41:29.832Z,40.22
2022-12-15T09:44:05.943Z,37.75
2022-12-15T09:46:57.217Z,38.63
2022-12-15T09:49:43.961Z,40.28
2022-12-15T09:52:14.554Z,47.47
2022-12-15T09:54:43.658Z,31.08
2022-12-15T09:57:33.551Z,35.75
2022-12-15T10:00:33.182Z,44.60
2022-12-15T10:03:28.373Z,42.17
2022-12-15T10:06:17.123Z,38.33
2022-12-15T10:09:10.406Z,36.63
2022-12-15T10:11:57.232Z,31.00
2022-12-15T10:14:44.458Z,33.08
2022-12-15T10:17:46.818Z,36.13
2022-12-15T10:20:22.249Z,40.63
2022-12-15T10:22:50.407Z,36.85
2022-12-15T10:28:17.666Z,31.23
2022-12-15T10:31:00.503Z,30.13
2022-12-15T10:33:47.145Z,39.20
2022-12-15T10:36:17.729Z,37.20
2022-12-15T10:38:50.259Z,40.42
2022-12-15T10:41:23.457Z,38.33
2022-12-15T10:43:53.231Z,40.97
2022-12-15T10:46:23.149Z,36.38
2022-12-15T10:48:52.768Z,34.88
2022-12-15T10:51:37.405Z,32.30
2022-12-15T10:54:10.508Z,41.20
2022-12-15T10:56:48.358Z,42.92
2022-12-15T10:59:23.814Z,39.75
2022-12-15T11:01:51.602Z,43.92
2022-12-15T11:04:32.879Z,39.25
2022-12-15T11:07:02.522Z,40.45
2022-12-15T11:09:35.843Z,34.03
2022-12-15T11:12:35.710Z,31.02
2022-12-15T11:15:03.281Z,36.50
2022-12-15T11:17:41.130Z,35.33
2022-12-15T11:20:18.703Z,38.50
2022-12-15T11:22:58.929Z,34.15
2022-12-15T11:25:39.144Z,79.63
2022-12-15T11:28:18.596Z,50.70
2022-12-15T11:31:25.815Z,35.28
2022-12-15T11:33:55.975Z,38.35
2022-12-15T11:36:57.087Z,39.83
2022-12-15T11:39:30.023Z,36.95
2022-12-15T11:42:22.047Z,30.90
2022-12-15T11:45:10.622Z,37.55
2022-12-15T11:47:43.504Z,36.78
2022-12-15T11:50:51.133Z,34.97
2022-12-15T11:53:32.885Z,36.28
2022-12-15T11:56:21.807Z,26.05
2022-12-15T11:59:16.472Z,29.30
2022-12-15T12:02:32.691Z,25.30
2022-12-15T12:05:31.127Z,30.85
2022-12-15T12:08:19.088Z,32.53
2022-12-15T12:11:07.691Z,36.67
2022-12-15T12:13:34.896Z,26.10
2022-12-15T12:16:26.644Z,23.25
2022-12-15T12:19:17.786Z,29.02
2022-12-15T12:21:50.936Z,34.38
2022-12-15T12:24:24.665Z,24.80
2022-12-15T12:26:59.681Z,28.20
2022-12-15T12:32:21.784Z,29.58
2022-12-15T12:40:51.394Z,26.15
2022-12-15T12:43:42.352Z,39.28
2022-12-15T12:46:58.704Z,27.98
2022-12-15T12:51:57.096Z,31.77
2022-12-15T12:54:33.856Z,22.48
2022-12-15T12:57:02.020Z,25.35
2022-12-15T12:59:29.131Z,24.67
2022-12-15T13:02:20.596Z,29.27
2022-12-15T13:05:32.814Z,32.75
2022-12-15T13:08:09.040Z,24.25
2022-12-15T13:10:41.774Z,22.13
2022-12-15T13:13:46.459Z,26.85
2022-12-15T13:16:27.102Z,23.85
2022-12-15T13:19:08.659Z,32.17
2022-12-15T13:21:42.122Z,39.22
2022-12-15T13:24:35.303Z,29.58
2022-12-15T13:27:15.874Z,24.60
2022-12-15T13:30:00.683Z,26.30
2022-12-15T13:32:34.122Z,37.40
2022-12-15T13:35:14.433Z,28.13
2022-12-15T13:37:53.040Z,25.83
2022-12-15T13:40:23.748Z,26.50
2022-12-15T13:43:10.229Z,29.67
2022-12-15T13:45:53.919Z,23.85
2022-12-15T13:48:33.445Z,28.52
2022-12-15T13:51:22.012Z,25.52
2022-12-15T13:54:00.796Z,23.20
2022-12-15T13:57:01.863Z,35.15
2022-12-15T13:59:40.859Z,24.10
2022-12-15T14:02:27.651Z,19.60
2022-12-15T14:05:07.780Z,32.03
2022-12-15T14:07:35.526Z,28.52
2022-12-15T14:10:06.543Z,30.83
2022-12-15T14:12:33.909Z,24.90
2022-12-15T14:15:01.332Z,31.38
2022-12-15T14:17:33.004Z,28.98
2022-12-15T14:20:12.583Z,31.77
2022-12-15T14:22:46.229Z,33.03
2022-12-15T14:25:26.197Z,30.38
2022-12-15T14:27:53.404Z,38.33
2022-12-15T14:30:23.607Z,37.75
2022-12-15T14:33:10.758Z,35.35
2022-12-15T14:35:44.851Z,38.25
2022-12-15T14:38:43.382Z,91.22
2022-12-15T14:41:25.413Z,109.80
2022-12-15T14:44:31.536Z,61.15
2022-12-15T14:46:50.297Z,39.30
2022-12-15T14:49:22.541Z,59.50
2022-12-15T14:51:54.805Z,75.93
2022-12-15T14:54:35.933Z,73.18
2022-12-15T14:57:15.861Z,262.05
2022-12-15T14:59:45.722Z,226.30
2022-12-15T15:02:15.771Z,190.15
2022-12-15T15:03:05.020Z,30.35
2022-12-15T15:03:06.627Z,39.88
2022-12-15T15:04:43.154Z,145.20
2022-12-15T15:07:18.758Z,41.97
2022-12-15T15:09:46.898Z,37.53
2022-12-15T15:12:23.146Z,51.72
2022-12-15T15:15:03.383Z,47.28
2022-12-15T15:17:51.324Z,40.15
2022-12-15T15:20:30.712Z,29.92
2022-12-15T15:23:19.251Z,39.60
2022-12-15T15:25:57.877Z,37.83
2022-12-15T15:28:27.866Z,34.88
2022-12-15T15:31:07.036Z,28.35
2022-12-15T15:33:34.306Z,31.13
2022-12-15T15:36:03.105Z,29.42
2022-12-15T15:38:35.768Z,30.48
2022-12-15T15:41:16.940Z,24.60
2022-12-15T15:43:44.411Z,25.85
2022-12-15T15:46:15.945Z,22.40
2022-12-15T15:48:46.341Z,26.63
2022-12-15T15:51:14.294Z,22.73
2022-12-15T15:53:41.783Z,33.85
2022-12-15T15:56:12.758Z,46.47
2022-12-15T15:58:39.966Z,53.55
2022-12-15T16:01:12.935Z,40.03
2022-12-15T16:03:40.938Z,150.55
2022-12-15T16:06:19.103Z,134.32
2022-12-15T16:08:53.028Z,46.25
2022-12-15T16:11:23.292Z,21.45
2022-12-15T16:13:50.362Z,37.92
2022-12-15T16:16:24.365Z,37.47
2022-12-15T16:18:51.705Z,28.77
2022-12-15T16:21:23.184Z,24.60
2022-12-15T16:23:50.331Z,21.35
2022-12-15T16:26:34.572Z,32.70
2022-12-15T16:29:01.645Z,36.28
2022-12-15T16:31:35.660Z,23.88
2022-12-15T16:34:07.955Z,23.98
2022-12-15T16:36:35.427Z,22.42
2022-12-15T16:39:03.155Z,29.05
2022-12-15T16:41:30.214Z,21.73
2022-12-15T16:44:00.152Z,24.92
2022-12-15T16:46:27.424Z,23.15
2022-12-15T16:48:54.839Z,28.63
2022-12-15T16:51:37.255Z,24.45
2022-12-15T16:54:04.746Z,27.80
2022-12-15T16:56:31.899Z,25.05
2022-12-15T16:59:30.785Z,24.42
2022-12-15T17:01:46.397Z,29.60
2022-12-15T17:04:13.893Z,28.73
2022-12-15T17:06:40.906Z,31.23
2022-12-15T17:09:13.636Z,20.75
2022-12-15T17:11:40.770Z,22.02
2022-12-15T17:14:10.832Z,26.48
2022-12-15T17:16:38.159Z,24.95
2022-12-15T17:19:06.399Z,25.48
2022-12-15T17:21:47.854Z,23.52
2022-12-15T17:24:18.359Z,28.05
2022-12-15T17:26:45.782Z,24.95
2022-12-15T17:29:22.671Z,29.45
2022-12-15T17:31:50.144Z,25.83
2022-12-15T17:34:34.898Z,27.73
2022-12-15T17:37:05.057Z,27.15
2022-12-15T17:39:34.794Z,20.60
2022-12-15T17:42:03.061Z,24.25
2022-12-15T17:44:38.280Z,30.17
2022-12-15T17:47:08.536Z,24.98
2022-12-15T17:49:37.968Z,26.63
2022-12-15T17:52:34.675Z,27.20
2022-12-15T17:55:03.436Z,34.00
2022-12-15T17:57:33.910Z,27.25
2022-12-15T18:00:02.171Z,24.80
2022-12-15T18:02:29.745Z,27.50
2022-12-15T18:04:59.717Z,22.35
2022-12-15T18:07:26.812Z,23.48
2022-12-15T18:09:53.920Z,28.88
2022-12-15T18:12:24.631Z,27.55
2022-12-15T18:14:52.822Z,29.15
2022-12-15T18:17:20.190Z,43.25
2022-12-15T18:19:47.422Z,31.33
2022-12-15T18:22:22.826Z,27.15
2022-12-15T18:24:52.845Z,35.70
2022-12-15T18:27:26.497Z,33.50
2022-12-15T18:30:02.150Z,32.72
2022-12-15T18:32:38.413Z,31.65
2022-12-15T18:35:26.594Z,26.77
2022-12-15T18:37:54.083Z,32.85
2022-12-15T18:40:24.179Z,28.42
2022-12-15T18:42:51.600Z,32.65
2022-12-15T18:45:28.322Z,29.10
2022-12-15T18:47:55.874Z,53.53
2022-12-15T18:50:26.513Z,21.15
2022-12-15T18:53:02.319Z,27.00
2022-12-15T18:55:36.335Z,26.58
2022-12-15T18:58:03.605Z,28.48
2022-12-15T19:00:31.329Z,27.45
2022-12-15T19:03:00.405Z,32.35
2022-12-15T19:05:29.236Z,28.48
2022-12-15T19:08:04.310Z,30.30
2022-12-15T19:13:00.941Z,32.08
2022-12-15T19:15:28.157Z,31.40
2022-12-15T19:18:27.753Z,32.83
2022-12-15T19:21:13.730Z,49.47
2022-12-15T19:23:41.127Z,29.10
2022-12-15T19:26:10.258Z,27.58
2022-12-15T19:28:37.391Z,32.58
2022-12-15T19:31:04.698Z,39.72
2022-12-15T19:33:32.105Z,30.63
2022-12-15T19:35:59.646Z,27.25
2022-12-15T19:38:31.375Z,33.58
2022-12-15T19:41:00.246Z,50.47
2022-12-15T19:43:28.708Z,31.45
2022-12-15T19:45:56.101Z,31.95
2022-12-15T19:48:24.381Z,28.85
2022-12-15T19:50:54.925Z,31.27
2022-12-15T19:53:26.215Z,28.85
2022-12-15T19:55:57.078Z,28.98
2022-12-15T19:58:37.315Z,31.00
2022-12-15T20:01:10.710Z,30.13
2022-12-15T20:03:39.062Z,30.40
2022-12-15T20:06:20.790Z,40.00
2022-12-15T20:08:51.125Z,30.38
2022-12-15T20:11:29.070Z,29.75
2022-12-15T20:13:56.699Z,37.60
2022-12-15T20:16:25.025Z,32.95
2022-12-15T20:18:55.053Z,37.38
2022-12-15T20:21:26.605Z,42.10
2022-12-15T20:24:00.664Z,34.70
2022-12-15T20:26:30.411Z,33.73
2022-12-15T20:28:58.313Z,77.28
2022-12-15T20:31:26.204Z,86.70
2022-12-15T20:33:54.161Z,57.58
2022-12-15T20:36:30.505Z,41.40
2022-12-15T20:38:57.831Z,44.45
2022-12-15T20:41:27.840Z,36.55
2022-12-15T20:43:55.879Z,46.10
2022-12-15T20:46:28.491Z,40.35
2022-12-15T20:48:56.750Z,50.03
2022-12-15T20:51:32.420Z,38.97
2022-12-15T20:54:01.891Z,33.78
2022-12-15T20:56:29.327Z,36.95
2022-12-15T20:58:58.438Z,37.33
2022-12-15T21:01:33.118Z,39.25
2022-12-15T21:04:03.136Z,40.25
2022-12-15T21:06:30.996Z,36.78
2022-12-15T21:08:58.176Z,34.83
2022-12-15T21:11:27.706Z,38.15
2022-12-15T21:13:56.882Z,48.67
2022-12-15T21:16:26.743Z,36.13
2022-12-15T21:19:19.351Z,35.05
2022-12-15T21:21:49.109Z,34.53
2022-12-15T21:24:26.743Z,36.80
2022-12-15T21:29:24.799Z,36.00
2022-12-15T21:31:52.501Z,29.85
2022-12-15T21:34:19.571Z,32.70
2022-12-15T21:36:50.610Z,37.95
2022-12-15T21:39:30.156Z,34.95
2022-12-15T21:42:07.388Z,50.47
2022-12-15T21:44:35.595Z,53.15
2022-12-15T21:47:05.652Z,41.03
2022-12-15T21:49:34.335Z,47.53
2022-12-15T21:52:01.800Z,44.55
2022-12-15T21:54:35.097Z,55.42
2022-12-15T21:57:05.383Z,50.03
2022-12-15T21:59:33.468Z,46.42
2022-12-15T22:02:01.563Z,40.05
2022-12-15T22:04:35.937Z,38.47
2022-12-15T22:07:03.316Z,36.80
2022-12-15T22:09:30.479Z,35.78
2022-12-15T22:12:01.564Z,34.20
2022-12-15T22:14:32.321Z,28.58
2022-12-15T22:17:01.189Z,25.63
2022-12-15T22:19:28.574Z,35.47
2022-12-15T22:21:55.747Z,30.02
2022-12-15T22:24:22.996Z,35.75
2022-12-15T22:26:50.445Z,27.05
2022-12-15T22:29:22.816Z,32.78
2022-12-15T22:31:50.918Z,44.47
2022-12-15T22:34:23.072Z,33.13
2022-12-15T22:36:51.074Z,33.65
2022-12-15T22:39:19.455Z,34.67
2022-12-15T22:41:50.087Z,38.08
2022-12-15T22:44:32.342Z,53.67
2022-12-15T22:47:01.813Z,37.38
2022-12-15T22:49:36.771Z,38.83
2022-12-15T22:54:41.315Z,38.17
2022-12-15T22:57:23.038Z,39.50
2022-12-15T23:00:00.772Z,37.20
2022-12-15T23:02:39.164Z,43.08
2022-12-15T23:05:10.045Z,39.55
2022-12-15T23:07:37.199Z,32.40
2022-12-15T23:10:23.669Z,38.15
2022-12-15T23:12:54.716Z,34.10
2022-12-15T23:15:42.763Z,46.22
2022-12-15T23:18:10.288Z,40.00
2022-12-15T23:20:38.122Z,38.55
2022-12-15T23:23:05.912Z,35.65
2022-12-15T23:25:33.345Z,29.52
2022-12-15T23:28:00.983Z,40.33
2022-12-15T23:30:28.308Z,34.80
2022-12-15T23:32:55.606Z,38.42
2022-12-15T23:35:23.029Z,42.13
2022-12-15T23:37:50.274Z,37.75
2022-12-15T23:40:21.510Z,36.33
2022-12-15T23:42:49.774Z,35.35
2022-12-15T23:45:18.419Z,42.22
2022-12-15T23:47:45.870Z,38.85
2022-12-15T23:50:13.030Z,37.72
2022-12-15T23:52:40.944Z,36.25
2022-12-15T23:55:10.332Z,35.60
2022-12-15T23:57:38.646Z,34.13
